Thatcher, Utah
Current Conditions -  °F | °C
As of 3:35 AM on Saturday 25 Oct 2014 (Local Time) from KBMC Reporting Station
Clear Clear  
Wind Chill: 46°   Ceiling: Unl
Heat Index: 46°   Visibility: 2.5mi
Dew Point: 36°   Wind: 0mph
Humidity: 68%   Direction: NA
Pressure: 30.1"   Gusts: NA
Location:  41.6836°N, 112.26°W
Report Text: KBMC 250935Z AUTO 00000KT 2 1/2SM CLR 08/02 A3010 RMK AO1 VIS 1/2V5 T00760021
Loading
Personal Weather Stations






























Interactive Weather Map
Tropical Storm Tracking
New forecast layout! Learn more

10-Day Weather Forecast

Advertisements
Track Severe Weather on mobile